Time;durP1;ratioP1;P1;durP2;ratioP2;P2;SDS_P1;SDS_P2;PMS_P1;PMS_P2;Temp;Humidity;BMP_temperature;BMP_pressure;BME280_temperature;BME280_humidity;BME280_pressure;Samples;Min_cycle;Max_cycle;Signal;HPM_P1;HPM_P2
2021/08/05 07:25:18;;;;;;;1.20;1.10;;;18.70;98.00;;;;;;6301758;22;20442;-73
2021/08/05 07:30:52;;;;;;;1.20;1.20;;;18.90;98.00;;;;;;5291411;22;20949;-75
2021/08/05 07:33:19;;;;;;;1.20;1.10;;;19.20;98.00;;;;;;5094865;28;20458;-73
2021/08/05 07:35:46;;;;;;;2.50;1.40;;;19.20;98.00;;;;;;5104728;28;20451;-72
2021/08/05 07:38:13;;;;;;;1.63;1.33;;;19.30;98.00;;;;;;5093107;28;20863;-73
2021/08/05 07:40:40;;;;;;;2.50;1.50;;;19.30;98.00;;;;;;5095116;28;20539;-72
2021/08/05 07:43:07;;;;;;;1.33;1.20;;;19.40;98.00;;;;;;5087606;28;20541;-72
2021/08/05 07:45:34;;;;;;;1.20;1.13;;;19.50;98.00;;;;;;5091431;28;20459;-73
2021/08/05 07:48:03;;;;;;;1.20;1.20;;;19.60;98.00;;;;;;5095579;28;20459;-72
2021/08/05 07:50:30;;;;;;;1.20;1.20;;;19.80;98.00;;;;;;5089744;28;20526;-72
2021/08/05 07:52:57;;;;;;;1.80;1.50;;;19.90;98.00;;;;;;5094715;28;20483;-72
2021/08/05 07:55:25;;;;;;;1.43;1.30;;;20.10;98.00;;;;;;5095433;28;20456;-73
2021/08/05 07:57:53;;;;;;;1.63;1.23;;;20.40;98.00;;;;;;5090745;28;20455;-72
2021/08/05 08:00:21;;;;;;;1.50;1.30;;;20.60;98.00;;;;;;5081581;28;20494;-73
2021/08/05 08:02:48;;;;;;;1.40;1.40;;;20.50;98.00;;;;;;5092273;28;20508;-72
2021/08/05 08:05:17;;;;;;;1.73;1.57;;;20.60;98.00;;;;;;5105289;28;20452;-72
2021/08/05 08:07:46;;;;;;;1.47;1.30;;;20.50;98.00;;;;;;5092076;28;20936;-72
2021/08/05 08:10:14;;;;;;;1.40;1.37;;;20.30;98.00;;;;;;5100049;28;20576;-72
2021/08/05 08:12:41;;;;;;;1.40;1.37;;;20.10;98.00;;;;;;5095115;28;20516;-72
2021/08/05 08:15:09;;;;;;;1.83;1.30;;;20.00;98.00;;;;;;5094103;28;20486;-72
2021/08/05 08:17:36;;;;;;;1.90;1.40;;;20.00;98.00;;;;;;5090841;28;20529;-72
2021/08/05 08:20:05;;;;;;;1.93;1.60;;;20.00;98.00;;;;;;5096400;28;20814;-72
2021/08/05 08:22:33;;;;;;;1.50;1.40;;;20.10;98.00;;;;;;5102365;28;20460;-72
2021/08/05 08:25:00;;;;;;;1.30;1.10;;;20.20;98.00;;;;;;5090421;28;20509;-72
2021/08/05 08:27:27;;;;;;;1.20;1.20;;;20.40;98.00;;;;;;5098225;28;20512;-72
2021/08/05 08:30:03;;;;;;;5.53;1.60;;;20.40;98.00;;;;;;5093751;28;20548;-72
2021/08/05 08:32:30;;;;;;;1.50;1.40;;;20.60;98.00;;;;;;5081861;28;20781;-72
2021/08/05 08:34:59;;;;;;;1.20;1.10;;;20.70;98.00;;;;;;5103366;28;20479;-72
2021/08/05 08:37:26;;;;;;;1.60;1.40;;;20.70;98.00;;;;;;5094209;28;20819;-72
2021/08/05 08:39:54;;;;;;;1.70;1.50;;;20.70;98.00;;;;;;5098370;28;20800;-72
2021/08/05 08:42:21;;;;;;;1.20;1.20;;;20.70;98.00;;;;;;5071718;28;21123;-72
2021/08/05 08:44:49;;;;;;;1.20;1.10;;;20.80;98.00;;;;;;5080715;28;20456;-72
2021/08/05 08:47:18;;;;;;;1.20;1.10;;;20.80;98.00;;;;;;5072051;28;20457;-72
2021/08/05 08:49:49;;;;;;;1.63;1.53;;;20.80;98.00;;;;;;5079694;28;20565;-72
2021/08/05 08:52:19;;;;;;;1.60;1.50;;;20.90;98.00;;;;;;5072299;28;20465;-72
2021/08/05 08:54:50;;;;;;;1.20;1.07;;;20.80;98.00;;;;;;5080999;28;20494;-72
2021/08/05 08:57:20;;;;;;;1.20;1.10;;;20.60;98.00;;;;;;5068686;28;20454;-72
2021/08/05 08:59:50;;;;;;;1.30;1.30;;;20.80;98.00;;;;;;5075359;28;20555;-71
2021/08/05 09:02:20;;;;;;;3.10;1.40;;;20.80;98.00;;;;;;5086274;28;20452;-71
2021/08/05 09:04:48;;;;;;;1.20;1.13;;;20.90;98.00;;;;;;5070496;28;20456;-72
2021/08/05 09:07:15;;;;;;;1.37;1.33;;;21.00;98.00;;;;;;5088585;28;20487;-72
2021/08/05 09:09:42;;;;;;;1.30;1.30;;;21.00;98.00;;;;;;5079501;28;20564;-72
2021/08/05 09:12:15;;;;;;;1.80;1.20;;;20.90;98.00;;;;;;5082819;28;20490;-74
2021/08/05 09:14:45;;;;;;;2.13;1.40;;;21.00;98.00;;;;;;5079798;28;20814;-72
2021/08/05 09:17:25;;;;;;;1.20;1.10;;;21.20;98.00;;;;;;5079767;28;20457;-72
2021/08/05 09:19:54;;;;;;;1.43;1.20;;;21.20;98.00;;;;;;5071857;28;20847;-72
2021/08/05 09:22:35;;;;;;;1.30;1.30;;;21.30;98.00;;;;;;5079996;28;20511;-72
2021/08/05 09:25:24;;;;;;;1.40;1.17;;;21.30;98.00;;;;;;5062898;28;20486;-74
2021/08/05 09:27:53;;;;;;;1.30;1.30;;;21.40;98.00;;;;;;5079964;28;21056;-73
2021/08/05 09:30:33;;;;;;;1.20;1.10;;;21.50;98.00;;;;;;5087547;28;20537;-72
2021/08/05 09:33:08;;;;;;;1.43;1.17;;;21.50;98.00;;;;;;5088267;28;20894;-72
2021/08/05 09:35:36;;;;;;;1.40;1.20;;;21.80;98.00;;;;;;5087827;28;20517;-72
2021/08/05 09:38:22;;;;;;;1.30;1.30;;;22.10;98.00;;;;;;5074023;28;21026;-72
2021/08/05 09:40:54;;;;;;;1.50;1.40;;;22.40;98.00;;;;;;5080308;28;20448;-72
2021/08/05 09:43:26;;;;;;;1.20;1.20;;;22.30;98.00;;;;;;5080060;28;20457;-72
2021/08/05 09:45:56;;;;;;;1.70;1.50;;;22.30;98.00;;;;;;5071498;28;20958;-73
2021/08/05 09:48:49;;;;;;;2.00;1.40;;;22.40;98.00;;;;;;5079678;28;20456;-73
2021/08/05 09:51:17;;;;;;;1.30;1.20;;;22.50;98.00;;;;;;5073529;28;20596;-72
2021/08/05 09:53:59;;;;;;;1.50;1.40;;;22.40;98.00;;;;;;5060675;28;20852;-71
2021/08/05 09:56:27;;;;;;;1.63;1.40;;;22.50;98.00;;;;;;5075823;28;20502;-71
2021/08/05 09:59:03;;;;;;;1.40;1.30;;;22.50;97.30;;;;;;5070876;28;20853;-72
2021/08/05 10:01:32;;;;;;;1.40;1.30;;;22.70;96.10;;;;;;5071087;28;20464;-72
2021/08/05 10:03:59;;;;;;;1.40;1.20;;;22.80;96.90;;;;;;5079859;28;20453;-72
2021/08/05 10:06:26;;;;;;;1.30;1.20;;;22.80;96.20;;;;;;5078987;28;20827;-72
2021/08/05 10:08:53;;;;;;;1.53;1.37;;;22.90;97.90;;;;;;5079307;28;20460;-71
2021/08/05 10:11:35;;;;;;;1.50;1.30;;;22.90;95.20;;;;;;5075763;28;20601;-71
2021/08/05 10:14:20;;;;;;;1.20;1.10;;;23.10;95.30;;;;;;5080668;28;20483;-71
2021/08/05 10:16:50;;;;;;;1.87;1.37;;;23.40;95.90;;;;;;5079220;28;20459;-72
2021/08/05 10:19:20;;;;;;;1.20;1.20;;;23.40;95.40;;;;;;5085943;28;20460;-73
2021/08/05 10:21:49;;;;;;;1.20;1.20;;;23.50;94.80;;;;;;5071173;28;20445;-72
2021/08/05 10:24:17;;;;;;;1.93;1.43;;;23.50;94.70;;;;;;5087138;28;20957;-72
2021/08/05 10:26:45;;;;;;;1.40;1.20;;;23.80;94.30;;;;;;5069312;28;20456;-73
2021/08/05 10:29:15;;;;;;;1.53;1.40;;;23.80;92.90;;;;;;5079185;28;20464;-74
2021/08/05 10:31:45;;;;;;;2.03;1.40;;;23.80;93.20;;;;;;5080184;28;20490;-73
2021/08/05 10:34:14;;;;;;;1.37;1.17;;;24.00;94.20;;;;;;5078999;28;20513;-74
2021/08/05 10:36:41;;;;;;;1.93;1.30;;;24.10;91.70;;;;;;5070519;28;20518;-74
2021/08/05 10:39:08;;;;;;;1.30;1.30;;;24.10;91.10;;;;;;5079574;28;20461;-72
2021/08/05 10:41:36;;;;;;;1.30;1.30;;;24.20;91.50;;;;;;5079466;28;20505;-74
2021/08/05 10:44:03;;;;;;;1.50;1.40;;;24.30;91.60;;;;;;5078812;28;20461;-74
2021/08/05 10:46:34;;;;;;;1.80;1.40;;;24.70;93.30;;;;;;5077865;28;20542;-70
2021/08/05 10:49:03;;;;;;;1.30;1.30;;;24.80;91.00;;;;;;5086549;28;20448;-71
2021/08/05 10:51:34;;;;;;;1.20;1.20;;;24.90;89.30;;;;;;5083880;28;20569;-72
2021/08/05 10:54:01;;;;;;;1.20;1.10;;;25.00;88.80;;;;;;5070084;28;21052;-73
2021/08/05 10:56:31;;;;;;;1.50;1.30;;;25.30;88.80;;;;;;5078626;28;20878;-73
2021/08/05 10:59:10;;;;;;;1.40;1.37;;;25.50;86.70;;;;;;5070828;28;20536;-73
2021/08/05 11:01:45;;;;;;;1.30;1.20;;;25.50;88.10;;;;;;5052680;28;20453;-74
2021/08/05 11:04:40;;;;;;;1.20;1.20;;;25.50;87.00;;;;;;5071439;28;20514;-73
2021/08/05 11:07:28;;;;;;;1.20;1.10;;;25.10;86.10;;;;;;5071811;28;20448;-72
2021/08/05 11:10:33;;;;;;;1.30;1.27;;;24.70;87.80;;;;;;5079038;28;20558;-71
2021/08/05 11:13:15;;;;;;;1.50;1.50;;;24.80;88.00;;;;;;5058108;28;20523;-72
2021/08/05 11:15:49;;;;;;;1.60;1.30;;;24.80;87.90;;;;;;5082178;28;20456;-72
2021/08/05 11:18:21;;;;;;;1.20;1.10;;;24.90;87.70;;;;;;5070290;28;21038;-72
2021/08/05 11:21:36;;;;;;;1.20;1.10;;;24.70;87.40;;;;;;5071044;28;20456;-72
2021/08/05 11:24:05;;;;;;;1.20;1.20;;;24.30;88.70;;;;;;5074277;28;20460;-72
2021/08/05 11:26:34;;;;;;;1.30;1.20;;;24.00;89.00;;;;;;5083625;28;20455;-72
2021/08/05 11:29:01;;;;;;;1.57;1.23;;;24.10;91.00;;;;;;5073618;28;20962;-72
2021/08/05 11:31:30;;;;;;;1.20;1.03;;;23.90;88.90;;;;;;5068594;28;20500;-72
2021/08/05 11:33:58;;;;;;;1.40;1.27;;;23.80;89.50;;;;;;5083105;28;20496;-71
2021/08/05 11:36:48;;;;;;;1.20;1.20;;;23.90;90.80;;;;;;5070507;28;20457;-71
2021/08/05 11:39:48;;;;;;;1.20;1.20;;;23.80;91.40;;;;;;5086775;28;20452;-71
2021/08/05 11:42:18;;;;;;;1.40;1.20;;;24.10;89.60;;;;;;5079664;28;20460;-71
2021/08/05 11:44:46;;;;;;;1.30;1.10;;;24.50;91.00;;;;;;5077771;28;20464;-72
2021/08/05 11:47:37;;;;;;;1.33;1.30;;;25.10;90.00;;;;;;5077976;28;20464;-73
2021/08/05 11:50:15;;;;;;;1.43;1.20;;;25.50;87.60;;;;;;5073502;28;20495;-76
2021/08/05 11:52:44;;;;;;;1.40;1.20;;;25.70;87.90;;;;;;5085557;28;20452;-76
2021/08/05 11:55:16;;;;;;;1.20;1.10;;;25.70;87.20;;;;;;5086758;28;20483;-73
2021/08/05 11:57:45;;;;;;;3.10;1.30;;;25.80;86.90;;;;;;5077010;28;20448;-72
2021/08/05 12:00:16;;;;;;;2.63;1.40;;;25.90;87.60;;;;;;5079229;28;20453;-74
2021/08/05 12:02:44;;;;;;;1.27;1.17;;;26.00;85.80;;;;;;5076013;28;20967;-73
2021/08/05 12:05:13;;;;;;;1.20;1.10;;;26.00;86.30;;;;;;5079269;28;20550;-73
2021/08/05 12:07:40;;;;;;;1.43;1.23;;;25.90;86.30;;;;;;5051706;28;20612;-74
2021/08/05 12:10:11;;;;;;;1.27;1.17;;;26.20;86.20;;;;;;5085170;28;20538;-73
2021/08/05 12:12:44;;;;;;;1.40;1.30;;;26.60;85.20;;;;;;5076647;28;20517;-75
2021/08/05 12:15:13;;;;;;;1.40;1.37;;;26.70;83.90;;;;;;5077487;28;21041;-72
2021/08/05 12:17:46;;;;;;;1.30;1.20;;;26.70;83.90;;;;;;5082133;28;20456;-74
2021/08/05 12:20:20;;;;;;;1.50;1.30;;;26.40;81.60;;;;;;5078744;28;20464;-74
2021/08/05 12:22:51;;;;;;;1.30;1.20;;;26.20;83.00;;;;;;5082158;28;20456;-77
2021/08/05 12:25:34;;;;;;;1.80;1.47;;;25.80;82.20;;;;;;5071115;28;20447;-75
2021/08/05 12:28:07;;;;;;;1.40;1.20;;;25.80;84.10;;;;;;5063786;28;20467;-74
2021/08/05 12:30:46;;;;;;;1.20;1.20;;;25.60;84.40;;;;;;5081763;28;20483;-73
2021/08/05 12:33:16;;;;;;;1.20;1.10;;;25.50;87.50;;;;;;5073373;28;20762;-73
2021/08/05 12:35:58;;;;;;;1.97;1.40;;;25.80;85.30;;;;;;5072600;28;20465;-73
2021/08/05 12:38:25;;;;;;;1.40;1.20;;;26.10;85.50;;;;;;5081972;28;20547;-73
2021/08/05 12:40:53;;;;;;;1.50;1.30;;;26.00;83.20;;;;;;5081260;28;20485;-74
2021/08/05 12:43:24;;;;;;;1.30;1.10;;;26.00;85.40;;;;;;5077156;28;20509;-75
2021/08/05 12:45:52;;;;;;;1.40;1.30;;;26.10;85.80;;;;;;5080577;28;20459;-75
2021/08/05 12:48:22;;;;;;;1.20;1.10;;;26.20;84.80;;;;;;5066005;28;20534;-75
2021/08/05 12:50:50;;;;;;;1.50;1.30;;;26.30;84.20;;;;;;5060255;28;20581;-74
2021/08/05 12:53:28;;;;;;;1.30;1.20;;;26.40;82.50;;;;;;5069883;28;20521;-75
2021/08/05 12:55:56;;;;;;;1.30;1.20;;;26.80;80.80;;;;;;5072946;28;20794;-72
2021/08/05 12:58:26;;;;;;;1.20;1.10;;;27.30;80.10;;;;;;5080190;28;20460;-73
2021/08/05 13:01:13;;;;;;;1.30;1.17;;;27.80;79.60;;;;;;5074300;28;20502;-74
2021/08/05 13:03:41;;;;;;;1.40;1.20;;;28.20;81.50;;;;;;5081109;28;20550;-75
2021/08/05 13:06:08;;;;;;;1.80;1.30;;;28.40;79.30;;;;;;5079459;28;20452;-75
2021/08/05 13:08:36;;;;;;;2.83;1.60;;;28.40;78.50;;;;;;5081029;28;20449;-74
2021/08/05 13:11:06;;;;;;;1.50;1.50;;;28.00;77.60;;;;;;5062984;28;20596;-75
2021/08/05 13:13:46;;;;;;;1.93;1.30;;;27.70;78.80;;;;;;5061216;28;20502;-76
2021/08/05 13:16:34;;;;;;;1.30;1.20;;;26.90;81.10;;;;;;5077844;28;20463;-74
2021/08/05 13:19:13;;;;;;;1.37;1.27;;;26.30;81.70;;;;;;5072658;28;20518;-74
2021/08/05 13:21:58;;;;;;;1.40;1.30;;;26.00;83.10;;;;;;5077160;28;20592;-74
2021/08/05 13:24:28;;;;;;;1.30;1.20;;;25.50;84.90;;;;;;5088295;28;20799;-74
2021/08/05 13:26:57;;;;;;;1.27;1.13;;;25.30;86.10;;;;;;5080209;28;20488;-74
2021/08/05 13:29:45;;;;;;;1.37;1.33;;;25.20;86.30;;;;;;5079847;28;20467;-74
2021/08/05 13:32:14;;;;;;;1.50;1.23;;;25.40;86.30;;;;;;5072024;28;20500;-74
2021/08/05 13:34:57;;;;;;;1.40;1.40;;;25.40;85.30;;;;;;5078092;28;20457;-74
2021/08/05 13:37:25;;;;;;;1.63;1.30;;;25.20;87.30;;;;;;5075535;28;20492;-74
2021/08/05 13:39:54;;;;;;;1.40;1.20;;;25.00;88.30;;;;;;5076605;28;20515;-74
2021/08/05 13:42:22;;;;;;;1.20;1.20;;;25.00;90.10;;;;;;5082566;28;20492;-73
2021/08/05 13:44:51;;;;;;;1.30;1.20;;;25.10;86.70;;;;;;5081108;28;20521;-73
2021/08/05 13:47:18;;;;;;;1.30;1.20;;;25.10;87.80;;;;;;5074276;28;20444;-74
2021/08/05 13:49:46;;;;;;;1.20;1.10;;;25.00;90.70;;;;;;5075118;28;20954;-74
2021/08/05 13:52:16;;;;;;;1.60;1.40;;;25.00;90.50;;;;;;5070843;28;20896;-74
2021/08/05 13:54:44;;;;;;;1.40;1.30;;;25.00;89.10;;;;;;5074203;28;20517;-74
2021/08/05 13:57:13;;;;;;;1.30;1.20;;;24.90;91.10;;;;;;5079128;28;20455;-74
2021/08/05 13:59:40;;;;;;;1.20;1.20;;;24.80;89.70;;;;;;5078500;28;20841;-74
2021/08/05 14:02:08;;;;;;;1.30;1.20;;;24.70;89.40;;;;;;5080473;28;21014;-74
2021/08/05 14:04:35;;;;;;;1.23;1.10;;;24.60;90.40;;;;;;5084471;28;20479;-74
2021/08/05 14:07:03;;;;;;;1.30;1.20;;;24.40;90.10;;;;;;5079959;28;20512;-74
2021/08/05 14:09:30;;;;;;;2.77;1.30;;;24.30;89.80;;;;;;5082366;28;20592;-74
2021/08/05 14:11:57;;;;;;;1.80;1.30;;;24.30;89.60;;;;;;5079412;28;20994;-74
2021/08/05 14:14:24;;;;;;;1.30;1.20;;;24.40;89.50;;;;;;5078641;28;20578;-74
2021/08/05 14:16:51;;;;;;;1.57;1.23;;;24.80;90.50;;;;;;5078884;28;20460;-74
2021/08/05 14:19:20;;;;;;;1.40;1.20;;;25.30;88.30;;;;;;5088329;28;20522;-75
2021/08/05 14:21:49;;;;;;;1.47;1.13;;;26.00;87.60;;;;;;5075797;28;20467;-74
2021/08/05 14:24:19;;;;;;;1.53;1.37;;;26.20;87.70;;;;;;5073845;28;20465;-74
2021/08/05 14:26:46;;;;;;;1.50;1.20;;;25.80;87.30;;;;;;5075819;28;20965;-74
2021/08/05 14:29:13;;;;;;;1.20;1.17;;;25.30;87.20;;;;;;5081363;28;20561;-74
2021/08/05 14:31:40;;;;;;;1.53;1.27;;;24.90;89.10;;;;;;5087831;28;20491;-74
2021/08/05 14:34:08;;;;;;;1.27;1.13;;;24.70;90.10;;;;;;5078807;28;20495;-75
2021/08/05 14:36:37;;;;;;;1.43;1.43;;;24.40;91.80;;;;;;5068845;28;20614;-74
2021/08/05 14:39:05;;;;;;;1.30;1.20;;;24.40;93.20;;;;;;5086670;28;20518;-75
2021/08/05 14:41:34;;;;;;;1.40;1.40;;;24.50;92.50;;;;;;5087542;28;20452;-74
2021/08/05 14:44:05;;;;;;;1.30;1.20;;;24.50;92.80;;;;;;5078028;28;20954;-74
2021/08/05 14:46:32;;;;;;;1.20;1.13;;;24.50;91.70;;;;;;5060512;28;20590;-74
2021/08/05 14:48:59;;;;;;;1.40;1.30;;;24.50;92.40;;;;;;5086820;28;20521;-75
2021/08/05 14:51:26;;;;;;;1.20;1.13;;;24.60;91.50;;;;;;5080132;28;20759;-75
2021/08/05 14:53:55;;;;;;;1.40;1.37;;;24.50;91.50;;;;;;5084578;28;20479;-74
2021/08/05 14:56:22;;;;;;;1.30;1.20;;;24.70;92.50;;;;;;5077934;28;20553;-75
2021/08/05 14:58:50;;;;;;;1.47;1.37;;;24.50;88.90;;;;;;5080479;28;20460;-74
2021/08/05 15:01:17;;;;;;;1.20;1.10;;;24.70;89.20;;;;;;5085190;28;20485;-75
2021/08/05 15:03:44;;;;;;;1.30;1.20;;;24.60;90.50;;;;;;5063092;28;20460;-75
2021/08/05 15:06:13;;;;;;;1.30;1.20;;;24.50;90.40;;;;;;5076428;28;21014;-74
2021/08/05 15:08:45;;;;;;;1.30;1.20;;;24.40;90.20;;;;;;5069969;28;20467;-75
2021/08/05 15:11:22;;;;;;;1.20;1.10;;;24.40;91.40;;;;;;5071415;28;20530;-75
2021/08/05 15:13:49;;;;;;;1.60;1.20;;;24.50;91.10;;;;;;5076329;28;20706;-75
2021/08/05 15:16:19;;;;;;;1.20;1.20;;;24.60;90.80;;;;;;5073415;28;20487;-74
2021/08/05 15:18:46;;;;;;;1.30;1.20;;;24.50;90.80;;;;;;5086769;28;20955;-75
2021/08/05 15:21:13;;;;;;;1.30;1.20;;;24.50;92.80;;;;;;5074857;28;20484;-75
2021/08/05 15:23:41;;;;;;;2.00;1.30;;;24.30;92.20;;;;;;5070239;28;20480;-75
2021/08/05 15:26:08;;;;;;;1.50;1.40;;;24.20;92.00;;;;;;5070148;28;20453;-78
2021/08/05 15:28:38;;;;;;;1.20;1.10;;;23.90;91.90;;;;;;5077579;28;20456;-75
2021/08/05 15:31:07;;;;;;;1.20;1.07;;;23.80;93.70;;;;;;5073718;28;20495;-75
2021/08/05 15:33:34;;;;;;;1.20;1.10;;;23.70;95.30;;;;;;5085742;28;20825;-76
2021/08/05 15:36:01;;;;;;;1.20;1.10;;;23.60;94.50;;;;;;5059534;28;20543;-75
2021/08/05 15:38:28;;;;;;;1.40;1.30;;;23.60;93.20;;;;;;5077922;28;20448;-75
2021/08/05 15:40:55;;;;;;;1.20;1.20;;;23.50;94.60;;;;;;5075082;28;20554;-74
2021/08/05 15:43:22;;;;;;;1.30;1.20;;;23.50;95.90;;;;;;5063222;28;20442;-72
2021/08/05 15:45:50;;;;;;;1.30;1.23;;;23.50;94.60;;;;;;5078706;28;20545;-72
2021/08/05 15:48:17;;;;;;;2.33;1.17;;;23.50;95.60;;;;;;5075838;28;20457;-74
2021/08/05 15:50:48;;;;;;;1.30;1.10;;;23.40;96.70;;;;;;5069078;28;20460;-73
2021/08/05 15:53:15;;;;;;;1.50;1.30;;;23.40;97.90;;;;;;5072645;28;20489;-72
2021/08/05 15:55:42;;;;;;;1.30;1.10;;;23.20;97.60;;;;;;5075732;28;20468;-73
2021/08/05 15:58:09;;;;;;;1.20;1.10;;;23.10;98.00;;;;;;5079214;28;20510;-73
2021/08/05 16:00:37;;;;;;;2.03;1.30;;;22.90;97.80;;;;;;5074443;28;20492;-74
2021/08/05 16:03:05;;;;;;;1.20;1.00;;;22.90;98.00;;;;;;5078827;28;20456;-73
2021/08/05 16:05:32;;;;;;;1.80;1.40;;;23.00;97.60;;;;;;5094599;28;20448;-74
2021/08/05 16:08:01;;;;;;;1.20;1.10;;;23.20;98.00;;;;;;5094574;28;20957;-74
2021/08/05 16:10:28;;;;;;;1.40;1.27;;;23.30;97.20;;;;;;5094687;28;20514;-73
2021/08/05 16:12:55;;;;;;;1.30;1.20;;;23.40;96.50;;;;;;5094402;28;20484;-74
2021/08/05 16:15:22;;;;;;;1.20;1.07;;;23.50;96.30;;;;;;5094415;28;20452;-74
2021/08/05 16:17:49;;;;;;;1.30;1.10;;;23.40;95.90;;;;;;5094408;28;20483;-74
2021/08/05 16:20:18;;;;;;;1.20;1.10;;;23.40;94.70;;;;;;5094408;28;20460;-73
2021/08/05 16:22:45;;;;;;;1.20;1.10;;;23.20;95.20;;;;;;5094425;28;20526;-74
2021/08/05 16:25:12;;;;;;;1.20;1.10;;;23.20;95.30;;;;;;5094497;28;20491;-74
2021/08/05 16:27:40;;;;;;;1.40;1.20;;;23.00;95.90;;;;;;5094346;28;20455;-73
2021/08/05 16:30:08;;;;;;;1.47;1.30;;;22.90;95.50;;;;;;5093904;28;20460;-74
2021/08/05 16:32:35;;;;;;;1.20;1.10;;;22.80;96.00;;;;;;5094136;28;21056;-74
2021/08/05 16:35:03;;;;;;;1.20;1.10;;;22.70;96.50;;;;;;5076017;28;20458;-73
2021/08/05 16:37:31;;;;;;;1.40;1.30;;;22.50;96.50;;;;;;5094157;28;20467;-74
2021/08/05 16:39:58;;;;;;;1.20;1.10;;;22.30;97.10;;;;;;5093996;28;20491;-74
2021/08/05 16:42:25;;;;;;;1.30;1.20;;;22.30;97.70;;;;;;5094049;28;20455;-73
2021/08/05 16:44:52;;;;;;;1.20;1.10;;;22.20;97.70;;;;;;5094264;28;20521;-74
2021/08/05 16:47:20;;;;;;;1.30;1.20;;;22.10;98.00;;;;;;5093932;28;20460;-74
2021/08/05 16:49:47;;;;;;;1.20;1.10;;;22.00;98.00;;;;;;5093956;28;20513;-72
2021/08/05 16:52:13;;;;;;;1.40;1.10;;;21.90;98.00;;;;;;5093866;28;20904;-72
2021/08/05 16:54:42;;;;;;;1.20;1.07;;;21.90;98.00;;;;;;5093758;28;20508;-72
2021/08/05 16:57:09;;;;;;;1.27;1.20;;;21.90;98.00;;;;;;5093970;28;20515;-72
2021/08/05 16:59:36;;;;;;;1.20;1.00;;;21.90;98.00;;;;;;5094053;28;20886;-73
2021/08/05 17:02:03;;;;;;;1.20;1.10;;;21.80;98.00;;;;;;5093521;28;20490;-73
2021/08/05 17:04:30;;;;;;;2.20;2.00;;;21.70;98.00;;;;;;5093745;28;20520;-73
2021/08/05 17:06:57;;;;;;;1.30;1.23;;;21.60;98.00;;;;;;5093709;28;20516;-73
2021/08/05 17:09:24;;;;;;;1.23;1.10;;;21.40;98.00;;;;;;5093556;28;20528;-73
2021/08/05 17:11:52;;;;;;;1.40;1.30;;;21.40;98.00;;;;;;5093708;28;20520;-73
2021/08/05 17:14:20;;;;;;;2.20;1.23;;;21.20;98.00;;;;;;5093739;28;20456;-73
2021/08/05 17:16:48;;;;;;;1.30;1.20;;;21.00;98.00;;;;;;5093541;28;20482;-73
2021/08/05 17:19:15;;;;;;;1.30;1.20;;;20.70;98.00;;;;;;5093279;28;20573;-72
2021/08/05 17:21:42;;;;;;;1.30;1.10;;;20.50;98.00;;;;;;5093400;28;20456;-73
2021/08/05 17:24:12;;;;;;;1.30;1.10;;;20.30;98.00;;;;;;5093249;28;20464;-73
2021/08/05 17:26:40;;;;;;;3.20;1.20;;;20.30;98.00;;;;;;5093354;28;20531;-74
2021/08/05 17:29:08;;;;;;;1.20;1.10;;;20.30;98.00;;;;;;5093071;28;20460;-73
2021/08/05 17:31:36;;;;;;;1.20;1.03;;;20.40;98.00;;;;;;5093074;28;20466;-73
2021/08/05 17:34:06;;;;;;;1.20;1.10;;;20.30;98.00;;;;;;5093106;28;20484;-74
2021/08/05 17:36:34;;;;;;;1.20;1.00;;;20.20;98.00;;;;;;5093140;28;20538;-74
2021/08/05 17:39:03;;;;;;;1.20;1.00;;;20.00;98.00;;;;;;5093025;28;20459;-73
2021/08/05 17:41:30;;;;;;;1.20;1.10;;;19.90;98.00;;;;;;5092881;28;20483;-74
2021/08/05 17:43:57;;;;;;;1.20;1.20;;;19.80;98.00;;;;;;5092921;28;20448;-74
2021/08/05 17:46:25;;;;;;;1.30;1.30;;;19.80;98.00;;;;;;5092834;28;20536;-73
2021/08/05 17:48:52;;;;;;;1.40;1.20;;;19.80;98.00;;;;;;5092706;28;20459;-74
2021/08/05 17:51:19;;;;;;;1.20;1.00;;;19.90;98.00;;;;;;5092777;28;20459;-73
2021/08/05 17:53:46;;;;;;;1.20;1.00;;;19.80;98.00;;;;;;5092460;28;20537;-73
2021/08/05 17:56:13;;;;;;;1.20;1.00;;;19.70;98.00;;;;;;5092765;28;20488;-73
2021/08/05 17:58:42;;;;;;;1.20;1.00;;;19.50;98.00;;;;;;5092629;28;20459;-73
2021/08/05 18:01:10;;;;;;;1.20;1.07;;;19.30;98.00;;;;;;5092639;28;20509;-73
2021/08/05 18:03:42;;;;;;;1.40;1.23;;;19.20;98.00;;;;;;5092568;28;20949;-73
2021/08/05 18:06:09;;;;;;;1.20;1.00;;;19.20;98.00;;;;;;5092547;28;20505;-73
2021/08/05 18:08:39;;;;;;;1.20;1.10;;;19.30;98.00;;;;;;5092248;28;20474;-73
2021/08/05 18:11:07;;;;;;;1.20;1.10;;;19.30;98.00;;;;;;5092624;28;20498;-73
2021/08/05 18:13:34;;;;;;;1.20;1.00;;;19.50;98.00;;;;;;5091433;28;21040;-73
2021/08/05 18:16:01;;;;;;;1.20;1.10;;;19.50;98.00;;;;;;5092537;28;20872;-73
2021/08/05 18:18:28;;;;;;;1.20;1.10;;;19.40;98.00;;;;;;5092497;28;20553;-73
2021/08/05 18:20:56;;;;;;;1.20;1.10;;;19.40;98.00;;;;;;5092572;28;20936;-73
2021/08/05 18:23:23;;;;;;;1.33;1.20;;;19.30;98.00;;;;;;5092447;28;20942;-73
2021/08/05 18:25:50;;;;;;;1.83;1.30;;;19.40;98.00;;;;;;5092570;28;20866;-73
2021/08/05 18:28:17;;;;;;;1.70;1.30;;;19.30;98.00;;;;;;5092226;28;20458;-73
2021/08/05 18:30:45;;;;;;;1.20;1.10;;;19.10;98.00;;;;;;5092071;28;21053;-74
2021/08/05 18:33:11;;;;;;;1.20;1.00;;;19.00;98.00;;;;;;5091798;28;21002;-73
2021/08/05 18:35:40;;;;;;;1.87;1.33;;;18.90;98.00;;;;;;5092039;28;20550;-74
2021/08/05 18:38:08;;;;;;;1.53;1.30;;;18.80;98.00;;;;;;5092004;28;20451;-74
2021/08/05 18:40:35;;;;;;;1.30;1.00;;;18.80;98.00;;;;;;5091928;28;20648;-74
2021/08/05 18:43:02;;;;;;;1.60;1.13;;;18.80;98.00;;;;;;5091997;28;20454;-74
2021/08/05 18:45:31;;;;;;;1.30;1.20;;;19.00;98.00;;;;;;5092077;28;20575;-74
2021/08/05 18:47:58;;;;;;;1.40;1.30;;;18.90;98.00;;;;;;5091757;28;20468;-74
2021/08/05 18:50:25;;;;;;;2.10;1.20;;;19.00;98.00;;;;;;5091612;28;20451;-74
2021/08/05 18:52:52;;;;;;;1.20;1.10;;;19.00;98.00;;;;;;5091515;28;20904;-74
2021/08/05 18:55:20;;;;;;;1.30;1.10;;;19.00;98.00;;;;;;5091603;28;20454;-74
2021/08/05 18:57:49;;;;;;;1.20;1.00;;;19.00;98.00;;;;;;5091714;28;20888;-74
2021/08/05 19:00:16;;;;;;;1.20;1.10;;;19.00;98.00;;;;;;5091537;28;20451;-74
2021/08/05 19:02:43;;;;;;;1.20;1.10;;;19.00;98.00;;;;;;5091367;28;21004;-74
2021/08/05 19:05:11;;;;;;;1.20;1.00;;;18.90;98.00;;;;;;5089880;28;20460;-74
2021/08/05 19:07:38;;;;;;;1.20;1.00;;;18.80;98.00;;;;;;5091427;28;21006;-74
2021/08/05 19:10:06;;;;;;;1.57;1.13;;;18.90;98.00;;;;;;5091305;28;20456;-74
2021/08/05 19:12:38;;;;;;;1.20;1.10;;;18.90;98.00;;;;;;5091430;28;21074;-75
2021/08/05 19:15:06;;;;;;;1.40;1.10;;;19.00;98.00;;;;;;5091409;28;20543;-74
2021/08/05 19:17:34;;;;;;;1.20;1.13;;;19.10;98.00;;;;;;5091499;28;20877;-74
2021/08/05 19:20:02;;;;;;;1.20;1.10;;;19.10;98.00;;;;;;5091148;28;20451;-74
2021/08/05 19:22:29;;;;;;;1.30;1.23;;;19.10;98.00;;;;;;5091274;28;20448;-74
2021/08/05 19:24:56;;;;;;;1.50;1.33;;;19.10;98.00;;;;;;5091121;28;20463;-74
2021/08/05 19:27:23;;;;;;;1.60;1.10;;;19.10;98.00;;;;;;5091439;28;20452;-74
2021/08/05 19:29:51;;;;;;;1.50;1.40;;;19.10;98.00;;;;;;5091144;28;20486;-74
2021/08/05 19:32:18;;;;;;;1.83;1.20;;;19.10;98.00;;;;;;5091192;28;20497;-74
2021/08/05 19:34:46;;;;;;;1.20;1.10;;;19.20;98.00;;;;;;5090948;28;20459;-74
2021/08/05 19:37:13;;;;;;;1.20;1.03;;;19.20;98.00;;;;;;5072948;28;20470;-74
2021/08/05 19:39:40;;;;;;;1.30;1.20;;;19.20;98.00;;;;;;5091303;28;20501;-74
2021/08/05 19:42:08;;;;;;;1.20;1.10;;;19.20;98.00;;;;;;5091417;28;20462;-74
2021/08/05 19:44:35;;;;;;;1.30;1.30;;;19.30;98.00;;;;;;5091083;28;20499;-74
2021/08/05 19:47:04;;;;;;;3.40;1.30;;;19.30;98.00;;;;;;5091104;28;20984;-74
2021/08/05 19:49:31;;;;;;;1.40;1.10;;;19.30;98.00;;;;;;5090850;28;20456;-75
2021/08/05 19:51:58;;;;;;;1.30;1.20;;;19.40;98.00;;;;;;5090927;28;20456;-74
2021/08/05 19:54:25;;;;;;;1.20;1.10;;;19.30;98.00;;;;;;5090466;28;20541;-74
2021/08/05 19:56:52;;;;;;;1.20;1.13;;;19.30;98.00;;;;;;5090841;28;21029;-74
2021/08/05 19:59:19;;;;;;;1.30;1.20;;;19.30;98.00;;;;;;5091076;28;20509;-74
2021/08/05 20:01:47;;;;;;;1.20;1.00;;;19.30;98.00;;;;;;5090822;28;20788;-74
2021/08/05 20:04:15;;;;;;;1.30;1.13;;;19.30;98.00;;;;;;5090814;28;20941;-74
2021/08/05 20:06:42;;;;;;;1.40;1.27;;;19.30;98.00;;;;;;5090778;28;20522;-75
2021/08/05 20:09:09;;;;;;;1.20;1.10;;;19.20;98.00;;;;;;5090710;28;20981;-75
2021/08/05 20:11:36;;;;;;;1.20;1.10;;;19.20;98.00;;;;;;5090642;28;20503;-74
2021/08/05 20:14:03;;;;;;;1.20;1.10;;;19.30;98.00;;;;;;5090771;28;20502;-74
2021/08/05 20:16:31;;;;;;;2.07;1.40;;;19.10;98.00;;;;;;5090693;28;20981;-74
2021/08/05 20:18:59;;;;;;;1.40;1.30;;;19.20;98.00;;;;;;5090585;28;20488;-74
2021/08/05 20:21:27;;;;;;;1.50;1.30;;;19.20;98.00;;;;;;5090630;28;20455;-74
2021/08/05 20:23:54;;;;;;;1.20;1.10;;;19.10;98.00;;;;;;5090635;28;20516;-75
2021/08/05 20:26:21;;;;;;;1.20;1.00;;;19.10;98.00;;;;;;5090626;28;20452;-74
2021/08/05 20:28:51;;;;;;;1.20;1.10;;;19.00;98.00;;;;;;5090426;28;20517;-75